createdAt,value
2022-08-28T00:00:32.460Z,25.60
2022-08-28T00:03:20.696Z,25.60
2022-08-28T00:06:08.959Z,25.60
2022-08-28T00:08:56.701Z,25.50
2022-08-28T00:11:44.701Z,25.50
2022-08-28T00:14:32.736Z,25.50
2022-08-28T00:17:21.860Z,25.50
2022-08-28T00:20:13.939Z,25.50
2022-08-28T00:23:02.796Z,25.50
2022-08-28T00:25:50.696Z,25.50
2022-08-28T00:28:37.508Z,25.50
2022-08-28T00:31:25.304Z,25.50
2022-08-28T00:34:14.819Z,25.40
2022-08-28T00:37:02.906Z,25.40
2022-08-28T00:39:50.598Z,25.40
2022-08-28T00:42:39.368Z,25.40
2022-08-28T00:45:28.244Z,25.40
2022-08-28T00:48:16.073Z,25.40
2022-08-28T00:51:24.351Z,25.40
2022-08-28T00:54:12.406Z,25.30
2022-08-28T00:57:02.023Z,25.30
2022-08-28T00:59:49.546Z,25.30
2022-08-28T01:02:38.633Z,25.30
2022-08-28T01:05:28.816Z,25.30
2022-08-28T01:08:18.717Z,25.30
2022-08-28T01:11:08.642Z,25.30
2022-08-28T01:14:02.950Z,25.30
2022-08-28T01:16:53.228Z,25.30
2022-08-28T01:19:45.788Z,25.30
2022-08-28T01:22:38.256Z,25.30
2022-08-28T01:25:33.930Z,25.20
2022-08-28T01:28:22.288Z,25.20
2022-08-28T01:31:12.938Z,25.20
2022-08-28T01:34:01.156Z,25.20
2022-08-28T01:36:49.673Z,25.20
2022-08-28T01:39:37.361Z,25.20
2022-08-28T01:42:26.665Z,25.20
2022-08-28T01:45:18.263Z,25.20
2022-08-28T01:48:07.400Z,25.20
2022-08-28T01:50:55.447Z,25.20
2022-08-28T01:53:45.322Z,25.10
2022-08-28T01:56:35.015Z,25.10
2022-08-28T01:59:24.010Z,25.10
2022-08-28T02:02:11.769Z,25.10
2022-08-28T02:04:59.769Z,25.10
2022-08-28T02:07:47.654Z,25.10
2022-08-28T02:10:38.808Z,25.10
2022-08-28T02:13:26.677Z,25.10
2022-08-28T02:16:15.912Z,25.10
2022-08-28T02:19:03.835Z,25.10
2022-08-28T02:21:51.826Z,25.10
2022-08-28T02:24:39.306Z,25.10
2022-08-28T02:27:26.978Z,25.10
2022-08-28T02:30:18.122Z,25.10
2022-08-28T02:33:07.474Z,25.00
2022-08-28T02:35:55.485Z,25.00
2022-08-28T02:38:44.790Z,25.00
2022-08-28T02:41:33.047Z,25.00
2022-08-28T02:44:20.846Z,25.00
2022-08-28T02:47:08.583Z,25.00
2022-08-28T02:49:57.847Z,25.00
2022-08-28T02:52:46.503Z,25.00
2022-08-28T02:55:34.428Z,25.00
2022-08-28T02:58:22.277Z,25.00
2022-08-28T03:01:13.999Z,25.00
2022-08-28T03:04:03.030Z,25.00
2022-08-28T03:06:52.197Z,25.00
2022-08-28T03:09:41.604Z,25.00
2022-08-28T03:12:29.425Z,25.00
2022-08-28T03:15:18.287Z,25.00
2022-08-28T03:18:08.121Z,25.00
2022-08-28T03:20:59.186Z,25.00
2022-08-28T03:23:48.192Z,25.00
2022-08-28T03:26:35.914Z,25.00
2022-08-28T03:29:24.052Z,25.00
2022-08-28T03:32:12.478Z,25.00
2022-08-28T03:35:00.206Z,25.00
2022-08-28T03:37:47.839Z,25.00
2022-08-28T03:40:42.663Z,25.00
2022-08-28T03:43:33.496Z,25.00
2022-08-28T03:46:23.939Z,25.00
2022-08-28T03:49:11.668Z,25.00
2022-08-28T03:51:59.731Z,25.00
2022-08-28T03:54:48.201Z,24.90
2022-08-28T03:57:38.258Z,24.90
2022-08-28T04:00:26.931Z,25.00
2022-08-28T04:03:14.945Z,24.90
2022-08-28T04:06:03.046Z,24.90
2022-08-28T04:08:51.180Z,24.90
2022-08-28T04:11:40.795Z,24.90
2022-08-28T04:14:30.173Z,24.90
2022-08-28T04:17:18.191Z,24.90
2022-08-28T04:20:07.595Z,24.90
2022-08-28T04:22:56.009Z,24.90
2022-08-28T04:25:43.686Z,24.80
2022-08-28T04:28:32.670Z,24.80
2022-08-28T04:31:31.372Z,24.80
2022-08-28T04:34:20.742Z,24.80
2022-08-28T04:37:08.472Z,24.80
2022-08-28T04:39:56.340Z,24.70
2022-08-28T04:42:45.160Z,24.70
2022-08-28T04:45:33.225Z,24.70
2022-08-28T04:48:22.634Z,24.70
2022-08-28T04:51:12.862Z,24.70
2022-08-28T04:54:02.987Z,24.70
2022-08-28T04:56:51.203Z,24.60
2022-08-28T04:59:44.722Z,24.60
2022-08-28T05:02:33.077Z,24.60
2022-08-28T05:05:22.570Z,24.60
2022-08-28T05:08:10.719Z,24.60
2022-08-28T05:10:59.548Z,24.50
2022-08-28T05:13:48.006Z,24.50
2022-08-28T05:16:44.135Z,24.50
2022-08-28T05:19:34.089Z,24.50
2022-08-28T05:22:23.389Z,24.50
2022-08-28T05:25:11.750Z,24.50
2022-08-28T05:27:59.410Z,24.50
2022-08-28T05:30:48.083Z,24.50
2022-08-28T05:33:35.918Z,24.50
2022-08-28T05:36:32.638Z,24.40
2022-08-28T05:39:22.315Z,24.40
2022-08-28T05:42:10.194Z,24.40
2022-08-28T05:44:59.555Z,24.40
2022-08-28T05:47:47.299Z,24.40
2022-08-28T05:50:35.334Z,24.40
2022-08-28T05:53:23.323Z,24.40
2022-08-28T05:56:16.549Z,24.40
2022-08-28T05:59:08.972Z,24.40
2022-08-28T06:02:00.986Z,24.40
2022-08-28T06:04:55.108Z,24.40
2022-08-28T06:07:43.176Z,24.40
2022-08-28T06:10:31.065Z,24.40
2022-08-28T06:13:20.742Z,24.30
2022-08-28T06:16:13.953Z,24.30
2022-08-28T06:19:01.872Z,24.30
2022-08-28T06:21:51.719Z,24.30
2022-08-28T06:24:40.908Z,24.30
2022-08-28T06:27:28.855Z,24.30
2022-08-28T06:30:20.593Z,24.30
2022-08-28T06:33:09.725Z,24.30
2022-08-28T06:35:58.752Z,24.30
2022-08-28T06:38:47.124Z,24.30
2022-08-28T06:41:41.028Z,24.30
2022-08-28T06:44:32.394Z,24.30
2022-08-28T06:47:22.245Z,24.30
2022-08-28T06:50:11.251Z,24.30
2022-08-28T06:53:00.112Z,24.30
2022-08-28T06:55:57.450Z,24.30
2022-08-28T06:58:50.100Z,24.30
2022-08-28T07:01:39.603Z,24.30
2022-08-28T07:04:29.178Z,24.30
2022-08-28T07:07:32.677Z,24.30
2022-08-28T07:10:20.815Z,24.30
2022-08-28T07:13:08.629Z,24.30
2022-08-28T07:15:56.587Z,24.40
2022-08-28T07:18:44.557Z,24.40
2022-08-28T07:21:38.180Z,24.40
2022-08-28T07:24:26.843Z,24.40
2022-08-28T07:27:18.797Z,24.50
2022-08-28T07:30:10.211Z,24.50
2022-08-28T07:32:58.101Z,24.50
2022-08-28T07:35:46.429Z,24.60
2022-08-28T07:38:36.366Z,24.60
2022-08-28T07:41:27.112Z,24.70
2022-08-28T07:44:34.112Z,24.70
2022-08-28T07:47:23.028Z,24.70
2022-08-28T07:50:11.040Z,24.80
2022-08-28T07:53:00.998Z,24.80
2022-08-28T07:55:52.597Z,24.90
2022-08-28T07:58:40.546Z,24.90
2022-08-28T08:01:30.728Z,25.00
2022-08-28T08:04:20.379Z,25.00
2022-08-28T08:07:08.436Z,25.10
2022-08-28T08:09:56.162Z,25.20
2022-08-28T08:12:47.181Z,25.20
2022-08-28T08:15:35.597Z,25.30
2022-08-28T08:18:23.420Z,25.40
2022-08-28T08:21:15.076Z,25.40
2022-08-28T08:24:06.894Z,25.50
2022-08-28T08:26:59.488Z,25.60
2022-08-28T08:29:51.152Z,25.60
2022-08-28T08:32:40.519Z,25.70
2022-08-28T08:35:28.282Z,25.80
2022-08-28T08:38:16.396Z,25.80
2022-08-28T08:41:14.913Z,25.80
2022-08-28T08:44:09.352Z,25.90
2022-08-28T08:47:14.017Z,25.90
2022-08-28T08:50:06.840Z,26.00
2022-08-28T08:53:24.435Z,26.00
2022-08-28T08:56:17.018Z,26.00
2022-08-28T08:59:09.835Z,26.10
2022-08-28T09:02:06.599Z,26.10
2022-08-28T09:04:58.942Z,26.10
2022-08-28T09:07:57.944Z,26.20
2022-08-28T09:10:55.269Z,26.20
2022-08-28T09:13:52.376Z,26.20
2022-08-28T09:16:44.600Z,26.20
2022-08-28T09:19:33.789Z,26.30
2022-08-28T09:22:22.618Z,26.40
2022-08-28T09:25:13.786Z,26.40
2022-08-28T09:28:09.766Z,26.50
2022-08-28T09:31:04.608Z,26.60
2022-08-28T09:33:54.091Z,26.70
2022-08-28T09:36:46.563Z,26.80
2022-08-28T09:39:38.738Z,26.90
2022-08-28T09:42:49.071Z,27.00
2022-08-28T09:45:37.315Z,27.00
2022-08-28T09:48:33.137Z,27.10
2022-08-28T09:51:31.452Z,27.20
2022-08-28T09:54:27.994Z,27.20
2022-08-28T09:57:15.931Z,27.30
2022-08-28T10:00:05.390Z,27.30
2022-08-28T10:03:09.031Z,27.40
2022-08-28T10:06:11.271Z,27.50
2022-08-28T10:09:13.479Z,27.50
2022-08-28T10:12:13.449Z,27.60
2022-08-28T10:15:09.967Z,27.70
2022-08-28T10:18:30.644Z,27.70
2022-08-28T10:21:27.428Z,27.80
2022-08-28T10:24:31.470Z,27.90
2022-08-28T10:27:37.857Z,28.00
2022-08-28T10:30:27.235Z,28.10
2022-08-28T10:33:38.726Z,28.10
2022-08-28T10:36:34.800Z,28.20
2022-08-28T10:39:50.839Z,28.30
2022-08-28T10:42:43.389Z,28.30
2022-08-28T10:45:36.028Z,28.40
2022-08-28T10:48:28.863Z,28.40
2022-08-28T10:51:35.366Z,28.40
2022-08-28T10:54:31.612Z,28.50
2022-08-28T10:57:33.993Z,28.50
2022-08-28T11:00:28.789Z,28.60
2022-08-28T11:03:34.052Z,28.60
2022-08-28T11:06:31.612Z,28.70
2022-08-28T11:09:33.531Z,28.70
2022-08-28T11:12:39.336Z,28.70
2022-08-28T11:15:52.585Z,28.80
2022-08-28T11:19:43.847Z,28.70
2022-08-28T11:22:38.797Z,28.70
2022-08-28T11:25:35.489Z,28.80
2022-08-28T11:28:44.594Z,28.80
2022-08-28T11:31:42.932Z,28.80
2022-08-28T11:35:00.442Z,28.80
2022-08-28T11:37:50.799Z,28.90
2022-08-28T11:40:58.117Z,28.90
2022-08-28T11:43:47.513Z,28.90
2022-08-28T11:46:37.176Z,28.90
2022-08-28T11:49:45.074Z,28.90
2022-08-28T11:53:18.262Z,28.90
2022-08-28T11:56:39.133Z,28.90
2022-08-28T12:00:04.140Z,29.00
2022-08-28T12:03:10.129Z,29.00
2022-08-28T12:06:01.825Z,29.00
2022-08-28T12:09:13.471Z,29.00
2022-08-28T12:12:06.695Z,29.00
2022-08-28T12:15:07.747Z,29.00
2022-08-28T12:17:58.905Z,29.00
2022-08-28T12:21:03.505Z,29.00
2022-08-28T12:24:07.230Z,29.00
2022-08-28T12:26:57.918Z,29.00
2022-08-28T12:29:51.801Z,29.00
2022-08-28T12:32:45.413Z,29.00
2022-08-28T12:35:33.162Z,29.00
2022-08-28T12:38:24.234Z,29.00
2022-08-28T12:41:18.158Z,29.00
2022-08-28T12:44:12.261Z,29.00
2022-08-28T12:47:00.645Z,29.00
2022-08-28T12:49:48.453Z,29.00
2022-08-28T12:52:36.630Z,29.00
2022-08-28T12:55:59.059Z,29.00
2022-08-28T12:59:06.015Z,29.00
2022-08-28T13:02:04.405Z,29.00
2022-08-28T13:04:57.549Z,29.10
2022-08-28T13:07:51.680Z,29.10
2022-08-28T13:10:49.350Z,29.00
2022-08-28T13:13:40.714Z,29.10
2022-08-28T13:16:41.727Z,29.10
2022-08-28T13:19:31.354Z,29.10
2022-08-28T13:22:36.005Z,29.10
2022-08-28T13:25:27.422Z,29.10
2022-08-28T13:28:18.963Z,29.00
2022-08-28T13:31:07.098Z,29.10
2022-08-28T13:34:11.383Z,29.10
2022-08-28T13:37:02.425Z,29.00
2022-08-28T13:39:52.227Z,29.00
2022-08-28T13:42:40.244Z,29.00
2022-08-28T13:45:36.317Z,29.10
2022-08-28T13:48:31.859Z,29.00
2022-08-28T13:51:20.869Z,29.00
2022-08-28T13:54:09.151Z,29.00
2022-08-28T13:57:01.134Z,29.00
2022-08-28T13:59:53.556Z,29.00
2022-08-28T14:03:02.273Z,29.00
2022-08-28T14:05:50.435Z,29.00
2022-08-28T14:08:38.296Z,29.00
2022-08-28T14:11:26.651Z,29.00
2022-08-28T14:14:14.949Z,29.00
2022-08-28T14:17:03.350Z,29.00
2022-08-28T14:19:52.692Z,29.00
2022-08-28T14:22:40.892Z,29.00
2022-08-28T14:25:28.488Z,29.00
2022-08-28T14:28:17.633Z,29.00
2022-08-28T14:31:12.283Z,29.00
2022-08-28T14:34:02.496Z,29.00
2022-08-28T14:36:55.423Z,29.00
2022-08-28T14:39:43.516Z,29.00
2022-08-28T14:42:31.450Z,29.00
2022-08-28T14:45:19.597Z,29.00
2022-08-28T14:48:07.541Z,29.00
2022-08-28T14:50:55.378Z,29.00
2022-08-28T14:53:44.800Z,29.00
2022-08-28T14:56:33.369Z,28.90
2022-08-28T14:59:24.851Z,29.00
2022-08-28T15:02:13.652Z,28.90
2022-08-28T15:05:01.497Z,28.90
2022-08-28T15:07:49.511Z,28.90
2022-08-28T15:10:41.179Z,28.90
2022-08-28T15:13:31.432Z,28.90
2022-08-28T15:16:29.660Z,28.90
2022-08-28T15:19:19.194Z,28.90
2022-08-28T15:22:07.153Z,28.90
2022-08-28T15:24:55.723Z,28.90
2022-08-28T15:27:44.711Z,28.90
2022-08-28T15:30:32.791Z,28.90
2022-08-28T15:33:20.816Z,28.90
2022-08-28T15:36:09.462Z,28.90
2022-08-28T15:39:14.463Z,28.90
2022-08-28T15:42:03.293Z,28.80
2022-08-28T15:44:52.698Z,28.90
2022-08-28T15:47:41.237Z,28.80
2022-08-28T15:50:29.200Z,28.80
2022-08-28T15:53:18.217Z,28.80
2022-08-28T15:56:06.363Z,28.80
2022-08-28T15:58:54.693Z,28.80
2022-08-28T16:01:44.046Z,28.80
2022-08-28T16:04:32.218Z,28.80
2022-08-28T16:07:21.921Z,28.80
2022-08-28T16:10:13.499Z,28.80
2022-08-28T16:13:03.292Z,28.80
2022-08-28T16:15:51.989Z,28.80
2022-08-28T16:18:41.870Z,28.80
2022-08-28T16:21:31.840Z,28.80
2022-08-28T16:24:19.585Z,28.80
2022-08-28T16:27:09.637Z,28.80
2022-08-28T16:30:16.217Z,28.70
2022-08-28T16:33:04.688Z,28.70
2022-08-28T16:35:55.042Z,28.70
2022-08-28T16:38:47.014Z,28.70
2022-08-28T16:41:34.704Z,28.70
2022-08-28T16:44:25.448Z,28.70
2022-08-28T16:47:12.709Z,28.70
2022-08-28T16:50:01.883Z,28.70
2022-08-28T16:52:50.663Z,28.60
2022-08-28T16:55:40.529Z,28.60
2022-08-28T16:58:28.438Z,28.60
2022-08-28T17:01:16.461Z,28.60
2022-08-28T17:04:04.565Z,28.60
2022-08-28T17:06:52.203Z,28.60
2022-08-28T17:09:40.883Z,28.60
2022-08-28T17:12:28.531Z,28.60
2022-08-28T17:15:16.280Z,28.60
2022-08-28T17:18:03.818Z,28.50
2022-08-28T17:21:08.824Z,28.50
2022-08-28T17:23:57.165Z,28.50
2022-08-28T17:26:46.211Z,28.50
2022-08-28T17:29:33.836Z,28.50
2022-08-28T17:32:22.115Z,28.50
2022-08-28T17:35:10.745Z,28.40
2022-08-28T17:37:57.925Z,28.40
2022-08-28T17:40:45.075Z,28.40
2022-08-28T17:43:33.740Z,28.40
2022-08-28T17:46:22.165Z,28.40
2022-08-28T17:49:10.028Z,28.40
2022-08-28T17:51:57.524Z,28.30
2022-08-28T17:54:45.100Z,28.30
2022-08-28T17:57:32.713Z,28.30
2022-08-28T18:00:21.816Z,28.30
2022-08-28T18:03:09.768Z,28.30
2022-08-28T18:05:58.019Z,28.30
2022-08-28T18:08:47.732Z,28.20
2022-08-28T18:11:36.026Z,28.20
2022-08-28T18:14:23.716Z,28.10
2022-08-28T18:17:13.506Z,28.10
2022-08-28T18:20:01.128Z,28.10
2022-08-28T18:22:49.705Z,28.00
2022-08-28T18:25:50.782Z,28.00
2022-08-28T18:28:39.353Z,28.00
2022-08-28T18:31:26.954Z,27.90
2022-08-28T18:34:16.450Z,27.90
2022-08-28T18:37:04.294Z,27.80
2022-08-28T18:39:51.803Z,27.80
2022-08-28T18:42:41.721Z,27.80
2022-08-28T18:45:29.587Z,27.70
2022-08-28T18:48:18.595Z,27.70
2022-08-28T18:51:09.283Z,27.60
2022-08-28T18:53:57.694Z,27.50
2022-08-28T18:56:46.012Z,27.50
2022-08-28T18:59:34.912Z,27.50
2022-08-28T19:02:22.416Z,27.40
2022-08-28T19:05:11.181Z,27.30
2022-08-28T19:08:00.037Z,27.30
2022-08-28T19:10:48.145Z,27.20
2022-08-28T19:13:35.721Z,27.20
2022-08-28T19:16:23.260Z,27.20
2022-08-28T19:19:10.696Z,27.20
2022-08-28T19:21:58.235Z,27.10
2022-08-28T19:24:47.230Z,27.00
2022-08-28T19:27:35.955Z,27.00
2022-08-28T19:30:23.648Z,27.00
2022-08-28T19:33:12.573Z,26.90
2022-08-28T19:36:00.082Z,26.90
2022-08-28T19:38:47.444Z,26.80
2022-08-28T19:41:36.809Z,26.80
2022-08-28T19:44:24.719Z,26.70
2022-08-28T19:47:12.013Z,26.70
2022-08-28T19:49:59.326Z,26.60
2022-08-28T19:52:47.475Z,26.60
2022-08-28T19:55:35.321Z,26.60
2022-08-28T19:58:24.192Z,26.50
2022-08-28T20:01:11.993Z,26.50
2022-08-28T20:04:00.497Z,26.40
2022-08-28T20:06:48.326Z,26.40
2022-08-28T20:09:35.913Z,26.40
2022-08-28T20:12:24.076Z,26.30
2022-08-28T20:15:14.607Z,26.30
2022-08-28T20:18:03.361Z,26.20
2022-08-28T20:20:52.241Z,26.20
2022-08-28T20:23:40.840Z,26.10
2022-08-28T20:26:28.614Z,26.10
2022-08-28T20:29:16.513Z,26.00
2022-08-28T20:32:05.486Z,26.00
2022-08-28T20:34:52.942Z,26.00
2022-08-28T20:37:44.529Z,25.90
2022-08-28T20:40:33.708Z,25.90
2022-08-28T20:43:20.965Z,25.90
2022-08-28T20:46:09.518Z,25.80
2022-08-28T20:48:58.323Z,25.80
2022-08-28T20:51:56.866Z,25.80
2022-08-28T20:54:44.855Z,25.70
2022-08-28T20:57:32.440Z,25.60
2022-08-28T21:00:19.659Z,25.60
2022-08-28T21:03:06.932Z,25.60
2022-08-28T21:05:55.561Z,25.50
2022-08-28T21:08:43.387Z,25.50
2022-08-28T21:11:31.232Z,25.50
2022-08-28T21:14:19.410Z,25.40
2022-08-28T21:17:07.758Z,25.40
2022-08-28T21:19:55.281Z,25.30
2022-08-28T21:22:44.732Z,25.30
2022-08-28T21:25:32.327Z,25.20
2022-08-28T21:28:19.967Z,25.20
2022-08-28T21:31:11.010Z,25.10
2022-08-28T21:33:58.592Z,25.10
2022-08-28T21:36:50.403Z,25.00
2022-08-28T21:39:39.470Z,25.00
2022-08-28T21:42:27.802Z,24.90
2022-08-28T21:45:16.116Z,24.90
2022-08-28T21:48:04.179Z,24.80
2022-08-28T21:50:51.764Z,24.80
2022-08-28T21:53:42.441Z,24.70
2022-08-28T21:56:31.909Z,24.70
2022-08-28T21:59:19.456Z,24.70
2022-08-28T22:02:07.654Z,24.60
2022-08-28T22:04:55.845Z,24.60
2022-08-28T22:07:45.031Z,24.60
2022-08-28T22:10:32.646Z,24.60
2022-08-28T22:13:22.052Z,24.60
2022-08-28T22:16:09.693Z,24.60
2022-08-28T22:18:57.644Z,24.60
2022-08-28T22:22:02.621Z,24.50
2022-08-28T22:24:50.580Z,24.50
2022-08-28T22:27:37.908Z,24.50
2022-08-28T22:30:27.029Z,24.50
2022-08-28T22:33:14.702Z,24.40
2022-08-28T22:36:02.262Z,24.40
2022-08-28T22:38:53.425Z,24.40
2022-08-28T22:41:42.038Z,24.40
2022-08-28T22:44:29.637Z,24.40
2022-08-28T22:47:18.948Z,24.40
2022-08-28T22:50:07.435Z,24.40
2022-08-28T22:52:54.956Z,24.40
2022-08-28T22:55:44.544Z,24.40
2022-08-28T22:58:34.702Z,24.30
2022-08-28T23:01:26.000Z,24.30
2022-08-28T23:04:16.217Z,24.30
2022-08-28T23:07:04.883Z,24.30
2022-08-28T23:09:52.770Z,24.20
2022-08-28T23:12:41.643Z,24.20
2022-08-28T23:15:30.267Z,24.20
2022-08-28T23:18:19.296Z,24.20
2022-08-28T23:21:10.168Z,24.20
2022-08-28T23:23:58.818Z,24.10
2022-08-28T23:26:47.453Z,24.10
2022-08-28T23:29:36.093Z,24.10
2022-08-28T23:32:24.596Z,24.10
2022-08-28T23:35:14.721Z,24.10
2022-08-28T23:38:04.438Z,24.10
2022-08-28T23:40:53.945Z,24.10
2022-08-28T23:43:42.267Z,24.10
2022-08-28T23:46:30.217Z,24.10
2022-08-28T23:49:18.674Z,24.00
2022-08-28T23:52:06.526Z,24.00
2022-08-28T23:54:55.823Z,24.00
2022-08-28T23:57:44.557Z,24.00
